Time;durP1;ratioP1;P1;durP2;ratioP2;P2;SDS_P1;SDS_P2;PMS_P1;PMS_P2;Temp;Humidity;BMP_temperature;BMP_pressure;BME280_temperature;BME280_humidity;BME280_pressure;Samples;Min_cycle;Max_cycle;Signal;HPM_P1;HPM_P2
2022/03/10 00:02:14;;;;;;;21.48;10.70;;;1.90;94.50;;;;;;5072522;28;20040;-82
2022/03/10 00:04:40;;;;;;;19.63;10.70;;;1.80;97.30;;;;;;5072520;28;20093;-81
2022/03/10 00:07:06;;;;;;;24.75;11.35;;;1.70;99.90;;;;;;5073037;28;20082;-81
2022/03/10 00:09:33;;;;;;;20.33;10.40;;;1.70;99.90;;;;;;5072419;28;20021;-80
2022/03/10 00:12:03;;;;;;;21.15;9.98;;;1.70;99.90;;;;;;5070624;28;20393;-82
2022/03/10 00:14:29;;;;;;;17.73;9.68;;;1.70;99.90;;;;;;5067927;28;20085;-82
2022/03/10 00:16:55;;;;;;;20.55;9.45;;;1.60;99.90;;;;;;5068162;28;20122;-82
2022/03/10 00:19:21;;;;;;;18.80;9.75;;;1.50;99.90;;;;;;5050734;28;20029;-81
2022/03/10 00:21:48;;;;;;;18.05;10.35;;;1.30;99.90;;;;;;5069559;28;20096;-82
2022/03/10 00:24:15;;;;;;;22.15;10.68;;;1.30;99.90;;;;;;5071038;28;20049;-83
2022/03/10 00:26:44;;;;;;;21.50;10.30;;;1.40;99.90;;;;;;5071991;28;20025;-82
2022/03/10 00:29:09;;;;;;;19.10;10.93;;;1.50;99.90;;;;;;5068889;28;20475;-83
2022/03/10 00:31:35;;;;;;;19.98;11.23;;;1.50;99.90;;;;;;5066993;28;20029;-83
2022/03/10 00:34:01;;;;;;;21.35;10.32;;;1.40;99.90;;;;;;5067878;28;20041;-81
2022/03/10 00:36:27;;;;;;;18.58;10.30;;;1.40;99.90;;;;;;5067974;28;20033;-82
2022/03/10 00:38:53;;;;;;;16.55;9.65;;;1.20;99.90;;;;;;5068164;28;20089;-82
2022/03/10 00:41:18;;;;;;;22.25;10.23;;;1.00;99.90;;;;;;5068620;28;20029;-83
2022/03/10 00:43:44;;;;;;;21.17;10.27;;;0.90;99.90;;;;;;5069089;28;20028;-81
2022/03/10 00:46:10;;;;;;;20.00;10.07;;;0.80;99.90;;;;;;5070834;28;20029;-82
2022/03/10 00:48:37;;;;;;;22.02;10.43;;;0.90;99.90;;;;;;5052740;28;20404;-82
2022/03/10 00:51:07;;;;;;;22.92;11.05;;;0.90;99.90;;;;;;5069937;28;20021;-82
2022/03/10 00:53:33;;;;;;;22.40;10.93;;;0.90;99.90;;;;;;5070613;28;20024;-81
2022/03/10 00:55:59;;;;;;;21.52;10.40;;;0.80;99.90;;;;;;5053060;28;20096;-81
2022/03/10 00:58:24;;;;;;;20.38;10.50;;;0.70;99.90;;;;;;5070135;28;20040;-83
2022/03/10 01:00:51;;;;;;;20.88;10.98;;;0.60;99.90;;;;;;5069355;28;20032;-83
2022/03/10 01:03:17;;;;;;;22.27;10.82;;;0.40;99.90;;;;;;5068662;28;20032;-82
2022/03/10 01:05:43;;;;;;;25.33;10.38;;;0.30;99.90;;;;;;5068850;28;20032;-80
2022/03/10 01:08:09;;;;;;;20.50;11.07;;;0.30;99.90;;;;;;5068826;28;20081;-83
2022/03/10 01:10:34;;;;;;;18.65;10.95;;;0.30;99.90;;;;;;5050231;28;20235;-82
2022/03/10 01:13:01;;;;;;;20.77;11.15;;;0.30;99.90;;;;;;5068788;28;20055;-81
2022/03/10 01:15:27;;;;;;;23.42;11.40;;;0.30;99.90;;;;;;5069609;28;20029;-81
2022/03/10 01:17:53;;;;;;;21.15;11.40;;;0.40;99.90;;;;;;5053288;28;20037;-81
2022/03/10 01:20:21;;;;;;;20.90;11.48;;;0.40;99.90;;;;;;5069381;28;20392;-83
2022/03/10 01:22:47;;;;;;;21.33;10.77;;;0.30;99.90;;;;;;5070163;28;20040;-82
2022/03/10 01:25:14;;;;;;;26.17;11.02;;;0.20;99.90;;;;;;5070690;28;20031;-82
2022/03/10 01:27:39;;;;;;;20.63;10.15;;;0.20;99.90;;;;;;5070200;28;20028;-83
2022/03/10 01:30:08;;;;;;;20.30;11.85;;;0.10;99.90;;;;;;5071367;28;20021;-82
2022/03/10 01:32:35;;;;;;;19.65;10.32;;;-0.10;99.90;;;;;;5070441;28;20052;-81
2022/03/10 01:35:02;;;;;;;26.25;13.00;;;-0.20;99.90;;;;;;5071162;28;20029;-82
2022/03/10 01:37:29;;;;;;;23.88;11.25;;;-0.20;99.90;;;;;;5071498;28;20080;-82
2022/03/10 01:39:55;;;;;;;22.17;11.30;;;-0.20;99.90;;;;;;5070912;28;20017;-82
2022/03/10 01:42:22;;;;;;;24.38;10.77;;;-0.20;99.90;;;;;;5070764;28;20024;-83
2022/03/10 01:44:52;;;;;;;20.73;10.85;;;-0.30;99.90;;;;;;5070662;28;20025;-81
2022/03/10 01:47:17;;;;;;;24.50;11.73;;;-0.30;99.90;;;;;;5054629;28;20032;-80
2022/03/10 01:49:43;;;;;;;22.63;11.40;;;-0.40;99.90;;;;;;5074251;28;20025;-81
2022/03/10 01:52:09;;;;;;;23.17;12.07;;;-0.50;99.90;;;;;;5073407;28;20084;-80
2022/03/10 01:54:34;;;;;;;25.40;12.18;;;-0.50;99.90;;;;;;5074188;28;20033;-80
2022/03/10 01:57:02;;;;;;;22.00;11.25;;;-0.50;99.90;;;;;;5074328;28;20029;-81
2022/03/10 01:59:27;;;;;;;26.55;11.88;;;-0.60;99.90;;;;;;5073961;28;20017;-82
2022/03/10 02:01:53;;;;;;;26.13;13.13;;;-0.60;99.90;;;;;;5074129;28;20033;-81
2022/03/10 02:04:18;;;;;;;24.05;11.70;;;-0.60;99.90;;;;;;5073981;28;20093;-80
2022/03/10 02:06:44;;;;;;;23.15;11.57;;;-0.60;99.90;;;;;;5073962;28;20025;-82
2022/03/10 02:11:54;;;;;;;22.63;11.75;;;-0.70;99.90;;;;;;5074017;28;20051;-81
2022/03/10 02:17:22;;;;;;;19.42;10.95;;;-0.50;99.90;;;;;;5072047;28;20139;-79
2022/03/10 02:19:49;;;;;;;22.10;11.05;;;-0.10;99.90;;;;;;5073025;28;20025;-81
2022/03/10 02:22:15;;;;;;;24.83;11.55;;;0.10;99.90;;;;;;5069848;28;20056;-82
2022/03/10 02:24:42;;;;;;;21.52;11.55;;;0.20;99.90;;;;;;5055586;28;20029;-81
2022/03/10 02:27:25;;;;;;;25.35;11.57;;;0.10;99.90;;;;;;5072413;28;20021;-82
2022/03/10 02:29:58;;;;;;;20.63;11.15;;;0.30;99.90;;;;;;5071857;28;20025;-80
2022/03/10 02:32:24;;;;;;;19.30;9.82;;;0.50;99.90;;;;;;5070598;28;20055;-81
2022/03/10 02:34:50;;;;;;;23.40;11.73;;;0.50;99.90;;;;;;5069506;28;20025;-82
2022/03/10 02:37:16;;;;;;;20.48;11.15;;;0.50;99.90;;;;;;5070497;28;20029;-81
2022/03/10 02:39:43;;;;;;;23.83;11.00;;;0.40;99.90;;;;;;5069476;28;20025;-83
2022/03/10 02:42:09;;;;;;;20.77;11.57;;;0.40;99.90;;;;;;5051047;28;20092;-83
2022/03/10 02:44:45;;;;;;;25.42;12.70;;;0.40;99.90;;;;;;5068180;28;20088;-83
2022/03/10 02:47:11;;;;;;;20.85;10.93;;;0.30;99.90;;;;;;5067843;28;20043;-82
2022/03/10 02:49:38;;;;;;;19.60;10.75;;;0.00;99.90;;;;;;5050555;28;20033;-84
2022/03/10 02:52:04;;;;;;;25.70;12.38;;;-0.20;99.90;;;;;;5057152;28;20035;-80
2022/03/10 02:54:30;;;;;;;24.02;10.55;;;-0.40;99.90;;;;;;5074998;28;20077;-81
2022/03/10 02:56:56;;;;;;;19.23;9.98;;;-0.20;99.90;;;;;;5070322;28;20029;-84
2022/03/10 02:59:22;;;;;;;21.88;11.27;;;0.10;99.90;;;;;;5068815;28;20036;-83
2022/03/10 03:01:47;;;;;;;19.10;11.43;;;0.50;99.90;;;;;;5069224;28;20029;-81
2022/03/10 03:04:13;;;;;;;16.33;10.48;;;0.70;99.90;;;;;;5070251;28;20043;-81
2022/03/10 03:06:38;;;;;;;17.70;9.90;;;0.80;99.90;;;;;;5070565;28;20033;-82
2022/03/10 03:09:04;;;;;;;24.83;10.73;;;0.80;99.90;;;;;;5068594;28;20028;-81
2022/03/10 03:11:30;;;;;;;18.58;9.43;;;0.70;99.90;;;;;;5069489;28;20059;-82
2022/03/10 03:13:56;;;;;;;19.60;10.45;;;0.60;99.90;;;;;;5051791;28;20033;-82
2022/03/10 03:16:24;;;;;;;19.25;10.48;;;0.40;99.90;;;;;;5068005;28;20029;-81
2022/03/10 03:18:49;;;;;;;19.80;9.43;;;0.20;99.90;;;;;;5067888;28;20013;-82
2022/03/10 03:21:15;;;;;;;21.58;10.45;;;0.10;99.90;;;;;;5066603;28;20032;-81
2022/03/10 03:23:41;;;;;;;18.15;10.63;;;0.00;99.90;;;;;;5067538;28;20037;-81
2022/03/10 03:26:06;;;;;;;17.38;10.05;;;0.10;99.90;;;;;;5066185;28;20036;-81
2022/03/10 03:28:32;;;;;;;17.45;9.48;;;0.30;99.90;;;;;;5065653;28;20052;-81
2022/03/10 03:30:57;;;;;;;17.92;9.38;;;0.40;99.90;;;;;;5046675;28;20029;-80
2022/03/10 03:33:23;;;;;;;18.13;9.63;;;0.50;99.90;;;;;;5065043;28;20098;-82
2022/03/10 03:35:48;;;;;;;16.92;9.23;;;0.60;99.90;;;;;;5065750;28;20492;-83
2022/03/10 03:38:14;;;;;;;16.65;8.70;;;0.70;99.90;;;;;;5066651;28;20029;-82
2022/03/10 03:40:40;;;;;;;19.08;10.20;;;0.80;99.90;;;;;;5068928;28;20028;-82
2022/03/10 03:43:06;;;;;;;19.65;9.52;;;0.70;99.90;;;;;;5068868;28;20018;-80
2022/03/10 03:45:32;;;;;;;17.38;9.90;;;0.70;99.90;;;;;;5052658;28;20040;-81
2022/03/10 03:47:57;;;;;;;21.95;9.82;;;0.60;99.90;;;;;;5051393;28;20059;-82
2022/03/10 03:50:23;;;;;;;17.90;9.50;;;0.60;99.90;;;;;;5068883;28;20114;-80
2022/03/10 03:52:48;;;;;;;18.98;9.65;;;0.50;99.90;;;;;;5068984;28;20033;-80
2022/03/10 03:55:14;;;;;;;17.30;9.23;;;0.40;99.90;;;;;;5068974;28;20068;-79
2022/03/10 03:57:41;;;;;;;18.50;9.55;;;0.30;99.90;;;;;;5051753;28;20025;-78
2022/03/10 04:00:08;;;;;;;18.25;9.77;;;0.30;99.90;;;;;;5070193;28;20029;-79
2022/03/10 04:02:34;;;;;;;15.85;9.02;;;0.40;99.90;;;;;;5074908;28;20543;-81
2022/03/10 04:05:00;;;;;;;20.48;9.82;;;0.40;99.90;;;;;;5076197;28;20039;-82
2022/03/10 04:07:25;;;;;;;19.45;9.95;;;0.50;99.90;;;;;;5067403;28;20040;-83
2022/03/10 04:09:51;;;;;;;19.77;9.65;;;0.60;99.90;;;;;;5065657;28;20029;-80
2022/03/10 04:12:16;;;;;;;18.85;9.25;;;0.60;99.90;;;;;;5067087;28;20392;-82
2022/03/10 04:14:42;;;;;;;17.30;9.90;;;0.40;99.90;;;;;;5049122;28;20029;-83
2022/03/10 04:17:07;;;;;;;17.52;9.43;;;0.20;99.90;;;;;;5048552;28;20021;-83
2022/03/10 04:19:33;;;;;;;22.90;10.93;;;0.00;99.90;;;;;;5066918;28;20021;-81
2022/03/10 04:21:59;;;;;;;22.10;10.30;;;-0.20;99.90;;;;;;5049666;28;20025;-80
2022/03/10 04:24:24;;;;;;;18.77;11.10;;;-0.20;99.90;;;;;;5050353;28;20039;-81
2022/03/10 04:26:50;;;;;;;19.35;10.10;;;-0.40;99.90;;;;;;5067772;28;20052;-82
2022/03/10 04:29:15;;;;;;;18.38;9.90;;;-0.50;99.90;;;;;;5049755;28;20400;-81
2022/03/10 04:31:42;;;;;;;20.75;10.38;;;-0.70;99.90;;;;;;5068665;28;20084;-81
2022/03/10 04:34:08;;;;;;;24.38;11.18;;;-0.80;99.90;;;;;;5068572;28;20021;-82
2022/03/10 04:36:34;;;;;;;20.42;10.63;;;-0.80;99.90;;;;;;5068455;28;20040;-82
2022/03/10 04:38:59;;;;;;;20.35;11.32;;;-0.90;99.90;;;;;;5068630;28;20063;-79
2022/03/10 04:41:25;;;;;;;17.02;10.10;;;-1.00;99.90;;;;;;5068404;28;20049;-80
2022/03/10 04:43:51;;;;;;;18.73;10.05;;;-1.10;99.90;;;;;;5068593;28;20029;-81
2022/03/10 04:46:16;;;;;;;21.05;10.88;;;-1.10;99.90;;;;;;5067870;28;20025;-82
2022/03/10 04:48:42;;;;;;;18.38;9.75;;;-1.10;99.90;;;;;;5066344;28;20053;-82
2022/03/10 04:51:08;;;;;;;21.15;10.77;;;-1.20;99.90;;;;;;5066806;28;20024;-81
2022/03/10 04:53:34;;;;;;;21.33;10.65;;;-1.20;99.90;;;;;;5067761;28;20036;-81
2022/03/10 04:55:59;;;;;;;22.23;10.77;;;-1.30;99.90;;;;;;5068058;28;20064;-80
2022/03/10 04:58:26;;;;;;;20.02;10.18;;;-1.30;99.90;;;;;;5067984;28;20056;-81
2022/03/10 05:00:51;;;;;;;16.35;9.75;;;-1.20;99.90;;;;;;5064904;28;20029;-80
2022/03/10 05:03:17;;;;;;;21.13;10.00;;;-1.20;99.90;;;;;;5068483;28;20029;-81
2022/03/10 05:05:43;;;;;;;18.55;10.40;;;-1.20;99.90;;;;;;5069743;28;20051;-79
2022/03/10 05:08:08;;;;;;;20.42;9.75;;;-1.10;99.90;;;;;;5072791;28;20033;-79
2022/03/10 05:10:34;;;;;;;17.65;10.48;;;-1.10;99.90;;;;;;5072896;28;20040;-79
2022/03/10 05:13:03;;;;;;;18.65;10.10;;;-1.20;99.90;;;;;;5068213;28;20029;-83
2022/03/10 05:15:32;;;;;;;23.60;11.02;;;-1.20;99.90;;;;;;5064185;28;20070;-80
2022/03/10 05:18:03;;;;;;;18.83;10.27;;;-1.20;99.90;;;;;;5060909;28;20223;-80
2022/03/10 05:20:30;;;;;;;22.33;10.65;;;-1.20;99.90;;;;;;5047660;28;20029;-80
2022/03/10 05:22:57;;;;;;;20.60;10.82;;;-1.20;99.90;;;;;;5056049;28;20052;-80
2022/03/10 05:25:25;;;;;;;20.77;10.80;;;-1.30;99.90;;;;;;5062727;28;20108;-82
2022/03/10 05:27:52;;;;;;;21.48;11.40;;;-1.40;99.90;;;;;;5062868;28;20025;-80
2022/03/10 05:30:19;;;;;;;21.15;10.35;;;-1.50;99.90;;;;;;5061619;28;20047;-81
2022/03/10 05:32:45;;;;;;;23.38;11.13;;;-1.50;99.90;;;;;;5066058;28;20039;-82
2022/03/10 05:35:15;;;;;;;20.27;10.82;;;-1.60;99.90;;;;;;5065090;28;20021;-79
2022/03/10 05:37:43;;;;;;;24.02;11.15;;;-1.50;99.90;;;;;;5069097;28;20013;-79
2022/03/10 05:40:11;;;;;;;22.05;10.95;;;-1.50;99.90;;;;;;5044832;28;20017;-80
2022/03/10 05:42:38;;;;;;;25.20;11.98;;;-1.60;99.90;;;;;;5059602;28;20017;-82
2022/03/10 05:45:05;;;;;;;23.25;11.55;;;-1.60;99.90;;;;;;5043708;28;20028;-80
2022/03/10 05:47:31;;;;;;;24.98;11.38;;;-1.50;99.90;;;;;;5045893;28;20307;-81
2022/03/10 05:49:56;;;;;;;25.17;11.20;;;-1.50;99.90;;;;;;5063024;28;20025;-83
2022/03/10 05:52:22;;;;;;;21.27;10.43;;;-1.50;99.90;;;;;;5063610;28;20048;-83
2022/03/10 05:54:47;;;;;;;23.40;10.60;;;-1.40;99.90;;;;;;5062927;28;20025;-81
2022/03/10 05:57:13;;;;;;;22.08;11.15;;;-1.40;99.90;;;;;;5063383;28;20472;-81
2022/03/10 05:59:39;;;;;;;34.35;12.15;;;-1.40;99.90;;;;;;5062310;28;20035;-81
2022/03/10 06:02:04;;;;;;;30.80;13.13;;;-1.30;99.90;;;;;;5043392;28;20056;-80
2022/03/10 06:04:30;;;;;;;24.95;11.60;;;-1.30;99.90;;;;;;5061168;28;20082;-83
2022/03/10 06:06:55;;;;;;;28.10;11.02;;;-1.30;99.90;;;;;;5064537;28;20104;-80
2022/03/10 06:09:21;;;;;;;28.00;11.70;;;-1.30;99.90;;;;;;5067451;28;20037;-81
2022/03/10 06:11:47;;;;;;;28.27;10.50;;;-1.30;99.90;;;;;;5065043;28;20039;-84
2022/03/10 06:14:13;;;;;;;24.92;11.80;;;-1.30;99.90;;;;;;5063887;28;20084;-79
2022/03/10 06:16:39;;;;;;;23.48;11.30;;;-1.30;99.90;;;;;;5064942;28;20461;-81
2022/03/10 06:19:05;;;;;;;24.60;11.48;;;-1.20;99.90;;;;;;5064179;28;20040;-80
2022/03/10 06:21:31;;;;;;;25.42;11.02;;;-1.20;99.90;;;;;;5064576;28;20025;-82
2022/03/10 06:23:56;;;;;;;28.23;11.70;;;-1.10;99.90;;;;;;5064180;28;20047;-79
2022/03/10 06:26:22;;;;;;;24.42;11.23;;;-1.10;99.90;;;;;;5064182;28;20017;-82
2022/03/10 06:28:47;;;;;;;22.88;12.05;;;-0.90;99.90;;;;;;5046179;28;20032;-84
2022/03/10 06:31:13;;;;;;;22.48;12.10;;;-0.70;99.90;;;;;;5063714;28;20070;-82
2022/03/10 06:33:39;;;;;;;25.52;10.85;;;-0.50;99.90;;;;;;5066221;28;20154;-81
2022/03/10 06:36:05;;;;;;;21.00;10.70;;;-0.40;99.90;;;;;;5066708;28;20028;-83
2022/03/10 06:38:31;;;;;;;22.83;11.13;;;-0.10;99.90;;;;;;5049453;28;20497;-83
2022/03/10 06:40:57;;;;;;;24.00;11.30;;;0.00;99.90;;;;;;5049271;28;20021;-81
2022/03/10 06:43:22;;;;;;;22.30;11.15;;;0.30;99.90;;;;;;5048613;28;20070;-83
2022/03/10 06:45:48;;;;;;;23.17;11.00;;;0.50;99.90;;;;;;5067326;28;20033;-81
2022/03/10 06:48:14;;;;;;;17.92;10.13;;;0.70;99.90;;;;;;5067355;28;20112;-82
2022/03/10 06:50:39;;;;;;;30.15;12.30;;;0.90;99.90;;;;;;5049746;28;20025;-83
2022/03/10 06:53:05;;;;;;;20.65;10.35;;;1.00;99.90;;;;;;5048455;28;20029;-84
2022/03/10 06:55:31;;;;;;;21.42;11.02;;;1.20;99.90;;;;;;5048523;28;20123;-83
2022/03/10 06:57:57;;;;;;;24.80;11.15;;;1.40;99.90;;;;;;5067625;28;20083;-82
2022/03/10 07:00:24;;;;;;;20.70;10.45;;;1.70;99.90;;;;;;5064786;28;20025;-84
2022/03/10 07:02:52;;;;;;;22.15;11.10;;;1.90;99.90;;;;;;5066508;28;20373;-80
2022/03/10 07:05:18;;;;;;;29.08;11.35;;;2.20;99.90;;;;;;5060261;28;20052;-77
2022/03/10 07:07:44;;;;;;;21.73;11.13;;;2.50;99.90;;;;;;5058433;28;20041;-77
2022/03/10 07:10:10;;;;;;;22.25;10.27;;;2.70;99.90;;;;;;5059843;28;20419;-81
2022/03/10 07:12:39;;;;;;;22.60;11.25;;;3.10;99.90;;;;;;5045449;28;20041;-83
2022/03/10 07:15:07;;;;;;;27.23;11.30;;;3.40;99.90;;;;;;5065788;28;20045;-82
2022/03/10 07:17:33;;;;;;;24.25;11.60;;;3.60;99.90;;;;;;5066732;28;20033;-83
2022/03/10 07:19:58;;;;;;;22.70;12.18;;;3.80;99.90;;;;;;5065146;28;20083;-80
2022/03/10 07:22:24;;;;;;;29.63;11.48;;;4.00;99.90;;;;;;5044546;28;20119;-79
2022/03/10 07:24:50;;;;;;;23.95;12.20;;;4.30;99.90;;;;;;5044264;28;20116;-82
2022/03/10 07:27:15;;;;;;;23.98;10.45;;;4.70;99.90;;;;;;5044053;28;20036;-80
2022/03/10 07:29:41;;;;;;;20.30;9.93;;;5.20;99.90;;;;;;5064970;28;20029;-82
2022/03/10 07:32:07;;;;;;;19.15;10.25;;;5.80;92.80;;;;;;5063566;28;20479;-82
2022/03/10 07:34:33;;;;;;;19.08;10.40;;;6.40;86.50;;;;;;5064182;28;20029;-80
2022/03/10 07:36:59;;;;;;;23.30;10.63;;;6.90;77.10;;;;;;5065609;28;20025;-80
2022/03/10 07:39:24;;;;;;;18.20;10.20;;;7.40;74.20;;;;;;5068447;28;20021;-82
2022/03/10 07:41:50;;;;;;;21.58;11.55;;;7.80;71.30;;;;;;5074510;28;20009;-80
2022/03/10 07:44:15;;;;;;;18.67;10.13;;;8.00;69.50;;;;;;5053359;28;20040;-82
2022/03/10 07:46:41;;;;;;;20.77;10.73;;;8.30;65.50;;;;;;5067415;28;20029;-84
2022/03/10 07:49:08;;;;;;;23.35;10.23;;;8.60;65.10;;;;;;5067092;28;20033;-80
2022/03/10 07:51:34;;;;;;;18.98;11.13;;;8.80;64.10;;;;;;5066876;28;20013;-84
2022/03/10 07:54:00;;;;;;;18.70;10.45;;;9.10;63.40;;;;;;5048755;28;20056;-83
2022/03/10 07:56:26;;;;;;;17.63;9.85;;;9.30;62.00;;;;;;5066769;28;20020;-82
2022/03/10 07:58:52;;;;;;;18.05;10.30;;;9.60;60.50;;;;;;5065727;28;20047;-82
2022/03/10 08:01:17;;;;;;;18.88;10.15;;;9.70;58.80;;;;;;5065869;28;20075;-80
2022/03/10 08:03:46;;;;;;;17.67;10.52;;;9.90;59.40;;;;;;5065919;28;20039;-84
2022/03/10 08:06:12;;;;;;;19.20;11.27;;;10.00;59.40;;;;;;5064575;28;20036;-83
2022/03/10 08:08:38;;;;;;;19.95;11.20;;;10.20;56.90;;;;;;5064535;28;20036;-81
2022/03/10 08:11:05;;;;;;;25.33;14.23;;;10.30;57.40;;;;;;5065569;28;20033;-81
2022/03/10 08:13:31;;;;;;;25.95;12.80;;;10.50;56.60;;;;;;5065284;28;20081;-84
2022/03/10 08:15:57;;;;;;;19.20;11.45;;;10.70;56.30;;;;;;5065404;28;20043;-84
2022/03/10 08:18:23;;;;;;;20.48;11.48;;;11.00;55.20;;;;;;5065034;28;20096;-81
2022/03/10 08:20:49;;;;;;;21.63;10.52;;;11.20;54.70;;;;;;5065927;28;20017;-83
2022/03/10 08:23:16;;;;;;;19.65;12.02;;;11.50;54.40;;;;;;5066131;28;20023;-81
2022/03/10 08:25:42;;;;;;;20.58;11.63;;;11.70;53.10;;;;;;5066743;28;20499;-81
2022/03/10 08:28:08;;;;;;;20.75;11.75;;;11.80;53.10;;;;;;5047566;28;20053;-81
2022/03/10 08:30:34;;;;;;;27.63;14.55;;;12.00;52.70;;;;;;5070879;28;20029;-83
2022/03/10 08:33:00;;;;;;;19.55;12.10;;;11.90;51.20;;;;;;5069554;28;20551;-81
2022/03/10 08:35:26;;;;;;;24.73;12.27;;;11.80;51.60;;;;;;5067954;28;20032;-84
2022/03/10 08:37:52;;;;;;;21.27;12.30;;;11.90;51.90;;;;;;5066587;28;20032;-82
2022/03/10 08:40:19;;;;;;;21.77;12.52;;;12.10;52.30;;;;;;5065840;28;20032;-81
2022/03/10 08:42:47;;;;;;;20.05;11.65;;;12.40;51.80;;;;;;5062632;28;20085;-82
2022/03/10 08:45:12;;;;;;;23.85;12.18;;;12.70;51.00;;;;;;5066362;28;20024;-84
2022/03/10 08:47:38;;;;;;;24.20;11.80;;;13.00;51.30;;;;;;5066229;28;20048;-81
2022/03/10 08:50:05;;;;;;;19.50;11.75;;;13.20;49.60;;;;;;5066483;28;20064;-83
2022/03/10 08:52:31;;;;;;;23.08;12.18;;;13.30;49.30;;;;;;5064875;28;20036;-82
2022/03/10 08:54:56;;;;;;;19.13;12.13;;;13.30;48.90;;;;;;5064780;28;20041;-80
2022/03/10 08:57:22;;;;;;;22.35;12.25;;;13.70;49.10;;;;;;5048703;28;20048;-82
2022/03/10 08:59:48;;;;;;;20.63;12.57;;;13.80;47.50;;;;;;5047818;28;20017;-82
2022/03/10 09:02:14;;;;;;;22.73;12.95;;;14.00;47.50;;;;;;5065566;28;20029;-84
2022/03/10 09:04:39;;;;;;;20.23;11.77;;;14.10;46.60;;;;;;5070233;28;20036;-80
2022/03/10 09:07:05;;;;;;;19.10;11.73;;;14.40;46.50;;;;;;5056071;28;20036;-81
2022/03/10 09:09:31;;;;;;;20.75;11.15;;;14.50;46.70;;;;;;5052289;28;20027;-81
2022/03/10 09:11:57;;;;;;;17.77;11.63;;;14.50;46.70;;;;;;5069952;28;20037;-83
2022/03/10 09:14:23;;;;;;;18.45;12.38;;;14.70;46.00;;;;;;5051712;28;20028;-81
2022/03/10 09:16:51;;;;;;;22.00;12.20;;;14.90;45.90;;;;;;5071216;28;20040;-83
2022/03/10 09:19:17;;;;;;;19.25;11.98;;;14.80;44.60;;;;;;5051542;28;20021;-82
2022/03/10 09:21:43;;;;;;;22.38;12.50;;;14.50;44.80;;;;;;5050355;28;20025;-82
2022/03/10 09:24:09;;;;;;;17.38;11.38;;;14.80;45.90;;;;;;5049694;28;20020;-82
2022/03/10 09:26:35;;;;;;;18.33;11.13;;;15.00;46.10;;;;;;5052425;28;20029;-82
2022/03/10 09:29:01;;;;;;;17.65;10.80;;;15.20;45.50;;;;;;5073439;28;20032;-82
2022/03/10 09:31:27;;;;;;;24.58;12.13;;;15.30;45.00;;;;;;5071157;28;20025;-81
2022/03/10 09:33:53;;;;;;;24.65;11.90;;;15.40;44.60;;;;;;5066625;28;20048;-82
2022/03/10 09:36:19;;;;;;;19.58;12.20;;;15.60;44.50;;;;;;5065883;28;20025;-82
2022/03/10 09:38:45;;;;;;;17.80;11.95;;;15.90;44.10;;;;;;5046853;28;20017;-80
2022/03/10 09:41:11;;;;;;;18.73;12.18;;;16.30;43.80;;;;;;5064655;28;20102;-84
2022/03/10 09:43:38;;;;;;;22.80;11.95;;;16.40;42.40;;;;;;5065250;28;20120;-83
2022/03/10 09:46:09;;;;;;;19.15;11.75;;;16.20;42.80;;;;;;5046577;28;20028;-83
2022/03/10 09:48:35;;;;;;;23.85;12.52;;;16.20;43.40;;;;;;5064485;28;20029;-79
2022/03/10 09:51:01;;;;;;;21.88;11.85;;;16.40;42.70;;;;;;5064480;28;20044;-82
2022/03/10 09:53:31;;;;;;;17.98;11.93;;;16.50;42.90;;;;;;5046651;28;20112;-81
2022/03/10 09:55:57;;;;;;;20.75;12.05;;;16.70;42.60;;;;;;5046347;28;20052;-82
2022/03/10 09:58:23;;;;;;;19.00;12.90;;;16.80;41.80;;;;;;5064032;28;20021;-79
2022/03/10 10:00:49;;;;;;;23.10;12.95;;;16.70;42.40;;;;;;5046738;28;20032;-82
2022/03/10 10:03:15;;;;;;;24.13;12.30;;;16.70;41.60;;;;;;5063986;28;20085;-81
2022/03/10 10:05:41;;;;;;;19.15;11.98;;;16.70;42.40;;;;;;5061881;28;20502;-81
2022/03/10 10:08:13;;;;;;;19.83;13.15;;;16.70;41.30;;;;;;5064733;28;20148;-81
2022/03/10 10:10:42;;;;;;;20.55;12.88;;;16.70;42.10;;;;;;5067738;28;20017;-81
2022/03/10 10:13:08;;;;;;;22.42;12.55;;;16.70;41.30;;;;;;5049120;28;20055;-82
2022/03/10 10:15:43;;;;;;;18.95;12.63;;;16.60;41.40;;;;;;5049086;28;20032;-81
2022/03/10 10:18:14;;;;;;;18.92;11.85;;;16.60;42.10;;;;;;5048194;28;20304;-83
2022/03/10 10:20:58;;;;;;;22.65;14.23;;;16.90;41.50;;;;;;5068135;28;20017;-82
2022/03/10 10:23:28;;;;;;;23.73;14.57;;;16.80;41.10;;;;;;5066571;28;20027;-81
2022/03/10 10:26:09;;;;;;;22.88;13.82;;;16.70;41.50;;;;;;5048020;28;20052;-82
2022/03/10 10:28:39;;;;;;;21.00;12.45;;;16.70;42.00;;;;;;5065360;28;20051;-83
2022/03/10 10:31:10;;;;;;;26.00;13.55;;;16.70;41.00;;;;;;5065937;28;20473;-82
2022/03/10 10:33:38;;;;;;;19.58;12.38;;;16.90;41.50;;;;;;5065087;28;20057;-81
2022/03/10 10:36:19;;;;;;;22.60;14.07;;;16.70;41.50;;;;;;5065169;28;20029;-80
2022/03/10 10:38:48;;;;;;;19.83;12.95;;;16.80;41.30;;;;;;5065419;28;20496;-83
2022/03/10 10:41:21;;;;;;;20.92;12.52;;;17.10;41.80;;;;;;5047680;28;20342;-83
2022/03/10 10:43:49;;;;;;;21.70;12.82;;;17.40;40.80;;;;;;5065770;28;20021;-81
2022/03/10 10:46:45;;;;;;;23.92;13.02;;;17.60;40.40;;;;;;5065098;28;20079;-82
2022/03/10 10:49:13;;;;;;;19.75;13.93;;;17.90;41.20;;;;;;5062129;28;20041;-80
2022/03/10 10:51:43;;;;;;;20.55;12.95;;;17.90;38.50;;;;;;5045645;28;20031;-80
2022/03/10 10:54:21;;;;;;;20.63;12.52;;;18.00;38.80;;;;;;5065532;28;20116;-82
2022/03/10 10:56:48;;;;;;;19.35;12.48;;;18.00;38.90;;;;;;5047212;28;20091;-81
2022/03/10 10:59:31;;;;;;;19.40;12.85;;;17.90;38.50;;;;;;5062959;28;20614;-82
2022/03/10 11:02:19;;;;;;;21.73;11.80;;;18.20;38.70;;;;;;5065536;28;20033;-81
2022/03/10 11:04:47;;;;;;;21.52;12.45;;;18.30;39.80;;;;;;5046965;28;20053;-82
2022/03/10 11:07:14;;;;;;;24.52;12.70;;;18.00;37.10;;;;;;5070572;28;20131;-84
2022/03/10 11:09:42;;;;;;;17.27;11.15;;;18.20;38.10;;;;;;5054422;28;20071;-82
2022/03/10 11:12:09;;;;;;;29.00;16.73;;;18.20;36.20;;;;;;5065582;28;20072;-83
2022/03/10 11:14:35;;;;;;;28.17;16.40;;;17.80;35.30;;;;;;5065093;28;20024;-80
2022/03/10 11:17:02;;;;;;;17.63;10.93;;;17.60;35.40;;;;;;5064590;28;20063;-80
2022/03/10 11:19:32;;;;;;;16.38;9.98;;;17.50;37.00;;;;;;5044841;28;20461;-84
2022/03/10 11:22:04;;;;;;;17.63;10.05;;;17.50;36.80;;;;;;5063007;28;20076;-84
2022/03/10 11:24:51;;;;;;;14.98;9.93;;;17.10;36.40;;;;;;5064438;28;20044;-83
2022/03/10 11:27:22;;;;;;;14.25;8.63;;;17.40;37.50;;;;;;5046161;28;20404;-82
2022/03/10 11:29:51;;;;;;;16.58;9.80;;;17.50;36.50;;;;;;5064203;28;20457;-82
2022/03/10 11:32:16;;;;;;;14.27;8.80;;;17.70;36.90;;;;;;5064589;28;20028;-82
2022/03/10 11:34:58;;;;;;;13.60;8.45;;;17.30;36.30;;;;;;5044219;28;20124;-82
2022/03/10 11:37:49;;;;;;;14.48;8.82;;;17.10;36.80;;;;;;5045728;28;20084;-81
2022/03/10 11:40:20;;;;;;;14.38;8.32;;;17.10;37.20;;;;;;5045193;28;20557;-82
2022/03/10 11:42:46;;;;;;;13.10;7.82;;;17.30;36.90;;;;;;5047029;28;20024;-81
2022/03/10 11:45:16;;;;;;;14.15;8.32;;;17.50;36.90;;;;;;5062469;28;20061;-82
2022/03/10 11:47:42;;;;;;;10.82;6.90;;;17.40;36.20;;;;;;5062375;28;20108;-81
2022/03/10 11:50:22;;;;;;;12.07;7.35;;;17.30;36.70;;;;;;5065538;28;20040;-83
2022/03/10 11:53:05;;;;;;;13.18;6.85;;;17.40;37.50;;;;;;5065380;28;20017;-83
2022/03/10 11:55:40;;;;;;;8.18;5.43;;;17.60;37.00;;;;;;5066599;28;20067;-84
2022/03/10 11:58:07;;;;;;;10.25;5.93;;;17.80;37.10;;;;;;5050143;28;20080;-81
2022/03/10 12:00:49;;;;;;;14.63;5.88;;;18.00;38.00;;;;;;5068877;28;20044;-81
2022/03/10 12:03:24;;;;;;;7.95;5.10;;;18.30;37.50;;;;;;5050144;28;20029;-81
2022/03/10 12:05:51;;;;;;;8.73;4.82;;;18.10;35.90;;;;;;5063523;28;20035;-83
2022/03/10 12:08:20;;;;;;;7.80;4.90;;;18.20;36.20;;;;;;5063200;28;20037;-82
2022/03/10 12:10:47;;;;;;;8.27;4.47;;;18.30;36.10;;;;;;5046453;28;20025;-81
2022/03/10 12:13:27;;;;;;;7.50;4.40;;;18.30;36.60;;;;;;5063690;28;20042;-81
2022/03/10 12:15:53;;;;;;;9.23;4.53;;;18.70;36.70;;;;;;5044732;28;20093;-82
2022/03/10 12:18:23;;;;;;;7.95;4.38;;;18.70;37.00;;;;;;5044904;28;20089;-82
2022/03/10 12:20:53;;;;;;;7.57;4.60;;;18.30;36.10;;;;;;5045538;28;20032;-81
2022/03/10 12:23:20;;;;;;;7.78;4.00;;;18.10;36.30;;;;;;5045244;28;20467;-81
2022/03/10 12:26:00;;;;;;;7.43;3.50;;;17.90;36.40;;;;;;5044352;28;20044;-81
2022/03/10 12:28:34;;;;;;;6.53;4.10;;;18.00;37.00;;;;;;5063128;28;20092;-81
2022/03/10 12:31:14;;;;;;;10.30;3.78;;;18.00;37.40;;;;;;5061350;28;20060;-82
2022/03/10 12:33:45;;;;;;;6.15;3.50;;;18.20;38.80;;;;;;5062970;28;20365;-81
2022/03/10 12:36:11;;;;;;;6.72;3.10;;;18.30;38.10;;;;;;5044148;28;20029;-81
2022/03/10 12:38:38;;;;;;;5.40;3.30;;;18.50;37.80;;;;;;5047238;28;20457;-81
2022/03/10 12:41:04;;;;;;;6.35;3.92;;;18.50;37.30;;;;;;5071753;28;20036;-79